sensor_id;sensor_type;location;lat;lon;timestamp;P1;durP1;ratioP1;P2;durP2;ratioP2
19495;SDS011;9888;48.606;9.630;2023-02-23T00:02:15;30.10;;;16.10;;
19495;SDS011;9888;48.606;9.630;2023-02-23T00:04:43;30.83;;;16.40;;
19495;SDS011;9888;48.606;9.630;2023-02-23T00:07:09;29.70;;;14.47;;
19495;SDS011;9888;48.606;9.630;2023-02-23T00:09:37;27.70;;;14.70;;
19495;SDS011;9888;48.606;9.630;2023-02-23T00:18:05;31.37;;;15.50;;
19495;SDS011;9888;48.606;9.630;2023-02-23T00:20:33;28.80;;;15.03;;
19495;SDS011;9888;48.606;9.630;2023-02-23T00:23:01;30.53;;;14.13;;
19495;SDS011;9888;48.606;9.630;2023-02-23T00:29:13;31.77;;;15.90;;
19495;SDS011;9888;48.606;9.630;2023-02-23T00:32:00;28.30;;;14.73;;
19495;SDS011;9888;48.606;9.630;2023-02-23T00:34:30;25.03;;;14.40;;
19495;SDS011;9888;48.606;9.630;2023-02-23T00:36:58;26.40;;;14.43;;
19495;SDS011;9888;48.606;9.630;2023-02-23T00:39:26;29.90;;;15.17;;
19495;SDS011;9888;48.606;9.630;2023-02-23T00:41:54;30.07;;;15.40;;
19495;SDS011;9888;48.606;9.630;2023-02-23T00:44:29;33.60;;;15.17;;
19495;SDS011;9888;48.606;9.630;2023-02-23T00:46:59;29.23;;;15.73;;
19495;SDS011;9888;48.606;9.630;2023-02-23T00:49:26;30.97;;;17.20;;
19495;SDS011;9888;48.606;9.630;2023-02-23T00:51:54;32.20;;;17.20;;
19495;SDS011;9888;48.606;9.630;2023-02-23T00:54:21;28.97;;;15.33;;
19495;SDS011;9888;48.606;9.630;2023-02-23T00:56:50;30.67;;;15.53;;
19495;SDS011;9888;48.606;9.630;2023-02-23T00:59:19;34.83;;;17.30;;
19495;SDS011;9888;48.606;9.630;2023-02-23T01:01:46;33.30;;;17.77;;
19495;SDS011;9888;48.606;9.630;2023-02-23T01:04:14;33.33;;;16.30;;
19495;SDS011;9888;48.606;9.630;2023-02-23T01:06:48;33.93;;;17.30;;
19495;SDS011;9888;48.606;9.630;2023-02-23T01:09:16;31.03;;;16.43;;
19495;SDS011;9888;48.606;9.630;2023-02-23T01:15:14;30.40;;;15.57;;
19495;SDS011;9888;48.606;9.630;2023-02-23T01:17:44;32.20;;;15.23;;
19495;SDS011;9888;48.606;9.630;2023-02-23T01:23:33;31.07;;;16.27;;
19495;SDS011;9888;48.606;9.630;2023-02-23T01:26:01;30.70;;;15.43;;
19495;SDS011;9888;48.606;9.630;2023-02-23T01:28:33;31.60;;;16.90;;
19495;SDS011;9888;48.606;9.630;2023-02-23T01:31:00;31.43;;;16.27;;
19495;SDS011;9888;48.606;9.630;2023-02-23T01:33:33;30.23;;;15.50;;
19495;SDS011;9888;48.606;9.630;2023-02-23T01:36:00;35.80;;;17.67;;
19495;SDS011;9888;48.606;9.630;2023-02-23T01:38:27;29.50;;;16.10;;
19495;SDS011;9888;48.606;9.630;2023-02-23T01:40:55;30.00;;;16.23;;
19495;SDS011;9888;48.606;9.630;2023-02-23T01:43:22;28.67;;;16.23;;
19495;SDS011;9888;48.606;9.630;2023-02-23T01:45:53;29.27;;;15.63;;
19495;SDS011;9888;48.606;9.630;2023-02-23T01:48:33;28.23;;;14.70;;
19495;SDS011;9888;48.606;9.630;2023-02-23T01:51:06;29.60;;;14.70;;
19495;SDS011;9888;48.606;9.630;2023-02-23T01:53:45;34.77;;;15.03;;
19495;SDS011;9888;48.606;9.630;2023-02-23T01:56:27;33.23;;;16.23;;
19495;SDS011;9888;48.606;9.630;2023-02-23T01:58:57;27.40;;;14.73;;
19495;SDS011;9888;48.606;9.630;2023-02-23T02:01:28;30.73;;;16.07;;
19495;SDS011;9888;48.606;9.630;2023-02-23T02:03:57;27.80;;;14.70;;
19495;SDS011;9888;48.606;9.630;2023-02-23T02:06:32;30.17;;;13.93;;
19495;SDS011;9888;48.606;9.630;2023-02-23T02:09:03;27.63;;;14.50;;
19495;SDS011;9888;48.606;9.630;2023-02-23T02:11:34;32.13;;;15.37;;
19495;SDS011;9888;48.606;9.630;2023-02-23T02:14:07;24.73;;;14.53;;
19495;SDS011;9888;48.606;9.630;2023-02-23T02:16:51;26.73;;;14.40;;
19495;SDS011;9888;48.606;9.630;2023-02-23T02:33:56;23.47;;;11.90;;
19495;SDS011;9888;48.606;9.630;2023-02-23T02:42:47;30.83;;;15.27;;
19495;SDS011;9888;48.606;9.630;2023-02-23T02:48:27;22.63;;;12.07;;
19495;SDS011;9888;48.606;9.630;2023-02-23T02:53:50;30.53;;;14.07;;
19495;SDS011;9888;48.606;9.630;2023-02-23T02:56:21;22.67;;;12.60;;
19495;SDS011;9888;48.606;9.630;2023-02-23T02:58:51;23.60;;;11.77;;
19495;SDS011;9888;48.606;9.630;2023-02-23T03:01:19;21.10;;;11.90;;
19495;SDS011;9888;48.606;9.630;2023-02-23T03:04:20;22.67;;;12.23;;
19495;SDS011;9888;48.606;9.630;2023-02-23T03:07:15;21.77;;;11.50;;
19495;SDS011;9888;48.606;9.630;2023-02-23T03:13:11;20.77;;;10.00;;
19495;SDS011;9888;48.606;9.630;2023-02-23T03:19:42;29.63;;;14.23;;
19495;SDS011;9888;48.606;9.630;2023-02-23T03:22:46;20.37;;;11.30;;
19495;SDS011;9888;48.606;9.630;2023-02-23T03:25:45;20.37;;;11.03;;
19495;SDS011;9888;48.606;9.630;2023-02-23T03:29:01;20.40;;;10.87;;
19495;SDS011;9888;48.606;9.630;2023-02-23T03:32:02;25.27;;;11.43;;
19495;SDS011;9888;48.606;9.630;2023-02-23T03:35:04;21.43;;;10.57;;
19495;SDS011;9888;48.606;9.630;2023-02-23T03:38:07;24.73;;;11.30;;
19495;SDS011;9888;48.606;9.630;2023-02-23T03:41:00;24.30;;;12.90;;
19495;SDS011;9888;48.606;9.630;2023-02-23T03:43:51;23.10;;;11.73;;
19495;SDS011;9888;48.606;9.630;2023-02-23T03:46:46;24.97;;;11.90;;
19495;SDS011;9888;48.606;9.630;2023-02-23T03:49:34;26.60;;;14.60;;
19495;SDS011;9888;48.606;9.630;2023-02-23T03:52:32;24.30;;;13.30;;
19495;SDS011;9888;48.606;9.630;2023-02-23T03:55:29;26.67;;;12.83;;
19495;SDS011;9888;48.606;9.630;2023-02-23T03:58:20;28.27;;;14.83;;
19495;SDS011;9888;48.606;9.630;2023-02-23T04:01:11;22.83;;;12.40;;
19495;SDS011;9888;48.606;9.630;2023-02-23T04:03:57;20.17;;;12.03;;
19495;SDS011;9888;48.606;9.630;2023-02-23T04:06:44;25.47;;;13.57;;
19495;SDS011;9888;48.606;9.630;2023-02-23T04:09:30;22.87;;;11.47;;
19495;SDS011;9888;48.606;9.630;2023-02-23T04:15:36;22.20;;;11.90;;
19495;SDS011;9888;48.606;9.630;2023-02-23T04:18:23;29.67;;;13.87;;
19495;SDS011;9888;48.606;9.630;2023-02-23T04:20:55;30.70;;;16.33;;
19495;SDS011;9888;48.606;9.630;2023-02-23T04:23:24;23.63;;;13.30;;
19495;SDS011;9888;48.606;9.630;2023-02-23T04:25:52;26.07;;;13.83;;
19495;SDS011;9888;48.606;9.630;2023-02-23T04:28:19;26.17;;;14.13;;
19495;SDS011;9888;48.606;9.630;2023-02-23T04:30:47;30.13;;;14.80;;
19495;SDS011;9888;48.606;9.630;2023-02-23T04:33:16;26.23;;;13.90;;
19495;SDS011;9888;48.606;9.630;2023-02-23T04:35:44;25.67;;;12.90;;
19495;SDS011;9888;48.606;9.630;2023-02-23T04:38:11;25.13;;;13.50;;
19495;SDS011;9888;48.606;9.630;2023-02-23T04:40:38;27.50;;;13.47;;
19495;SDS011;9888;48.606;9.630;2023-02-23T04:43:05;25.77;;;14.53;;
19495;SDS011;9888;48.606;9.630;2023-02-23T04:45:32;29.67;;;16.03;;
19495;SDS011;9888;48.606;9.630;2023-02-23T04:47:58;29.80;;;14.83;;
19495;SDS011;9888;48.606;9.630;2023-02-23T04:50:26;27.50;;;15.43;;
19495;SDS011;9888;48.606;9.630;2023-02-23T04:52:53;29.23;;;15.83;;
19495;SDS011;9888;48.606;9.630;2023-02-23T04:55:22;28.33;;;15.93;;
19495;SDS011;9888;48.606;9.630;2023-02-23T04:57:50;31.47;;;16.50;;
19495;SDS011;9888;48.606;9.630;2023-02-23T05:00:21;29.23;;;14.73;;
19495;SDS011;9888;48.606;9.630;2023-02-23T05:02:49;27.20;;;15.20;;
19495;SDS011;9888;48.606;9.630;2023-02-23T05:05:16;27.10;;;14.50;;
19495;SDS011;9888;48.606;9.630;2023-02-23T05:07:43;30.90;;;14.40;;
19495;SDS011;9888;48.606;9.630;2023-02-23T05:10:10;29.93;;;14.97;;
19495;SDS011;9888;48.606;9.630;2023-02-23T05:12:37;29.70;;;15.03;;
19495;SDS011;9888;48.606;9.630;2023-02-23T05:15:05;29.07;;;15.03;;
19495;SDS011;9888;48.606;9.630;2023-02-23T05:17:33;31.40;;;14.90;;
19495;SDS011;9888;48.606;9.630;2023-02-23T05:20:02;30.87;;;15.13;;
19495;SDS011;9888;48.606;9.630;2023-02-23T05:22:29;29.60;;;15.60;;
19495;SDS011;9888;48.606;9.630;2023-02-23T05:24:56;27.20;;;15.00;;
19495;SDS011;9888;48.606;9.630;2023-02-23T05:27:24;29.60;;;15.77;;
19495;SDS011;9888;48.606;9.630;2023-02-23T05:29:50;30.63;;;16.53;;
19495;SDS011;9888;48.606;9.630;2023-02-23T05:32:17;28.70;;;14.77;;
19495;SDS011;9888;48.606;9.630;2023-02-23T05:34:45;27.60;;;15.37;;
19495;SDS011;9888;48.606;9.630;2023-02-23T05:37:13;28.50;;;15.03;;
19495;SDS011;9888;48.606;9.630;2023-02-23T05:39:40;28.83;;;15.10;;
19495;SDS011;9888;48.606;9.630;2023-02-23T05:42:07;30.10;;;16.10;;
19495;SDS011;9888;48.606;9.630;2023-02-23T05:44:34;29.73;;;15.57;;
19495;SDS011;9888;48.606;9.630;2023-02-23T05:47:02;30.50;;;15.90;;
19495;SDS011;9888;48.606;9.630;2023-02-23T05:49:29;31.00;;;15.43;;
19495;SDS011;9888;48.606;9.630;2023-02-23T05:51:56;27.50;;;14.83;;
19495;SDS011;9888;48.606;9.630;2023-02-23T05:54:23;26.43;;;14.30;;
19495;SDS011;9888;48.606;9.630;2023-02-23T05:56:50;29.30;;;15.47;;
19495;SDS011;9888;48.606;9.630;2023-02-23T05:59:18;25.83;;;14.97;;
19495;SDS011;9888;48.606;9.630;2023-02-23T06:01:46;29.37;;;15.40;;
19495;SDS011;9888;48.606;9.630;2023-02-23T06:04:13;29.13;;;15.00;;
19495;SDS011;9888;48.606;9.630;2023-02-23T06:06:41;27.67;;;14.93;;
19495;SDS011;9888;48.606;9.630;2023-02-23T06:09:08;30.63;;;15.27;;
19495;SDS011;9888;48.606;9.630;2023-02-23T06:11:36;31.63;;;15.60;;
19495;SDS011;9888;48.606;9.630;2023-02-23T06:14:04;29.60;;;14.90;;
19495;SDS011;9888;48.606;9.630;2023-02-23T06:16:31;28.30;;;14.00;;
19495;SDS011;9888;48.606;9.630;2023-02-23T06:18:58;26.67;;;14.60;;
19495;SDS011;9888;48.606;9.630;2023-02-23T06:21:25;32.30;;;14.37;;
19495;SDS011;9888;48.606;9.630;2023-02-23T06:23:52;26.80;;;15.03;;
19495;SDS011;9888;48.606;9.630;2023-02-23T06:26:19;28.60;;;14.30;;
19495;SDS011;9888;48.606;9.630;2023-02-23T06:28:46;26.87;;;14.10;;
19495;SDS011;9888;48.606;9.630;2023-02-23T06:31:13;28.40;;;15.73;;
19495;SDS011;9888;48.606;9.630;2023-02-23T06:33:41;27.07;;;14.10;;
19495;SDS011;9888;48.606;9.630;2023-02-23T06:36:07;24.83;;;13.80;;
19495;SDS011;9888;48.606;9.630;2023-02-23T06:38:35;27.30;;;15.47;;
19495;SDS011;9888;48.606;9.630;2023-02-23T06:41:09;27.00;;;13.87;;
19495;SDS011;9888;48.606;9.630;2023-02-23T06:43:36;24.63;;;13.63;;
19495;SDS011;9888;48.606;9.630;2023-02-23T06:46:03;30.90;;;14.03;;
19495;SDS011;9888;48.606;9.630;2023-02-23T06:48:31;27.50;;;14.13;;
19495;SDS011;9888;48.606;9.630;2023-02-23T06:50:58;29.07;;;15.03;;
19495;SDS011;9888;48.606;9.630;2023-02-23T06:53:25;31.10;;;14.80;;
19495;SDS011;9888;48.606;9.630;2023-02-23T06:55:54;28.67;;;14.00;;
19495;SDS011;9888;48.606;9.630;2023-02-23T06:58:22;27.20;;;14.20;;
19495;SDS011;9888;48.606;9.630;2023-02-23T07:00:48;28.47;;;14.57;;
19495;SDS011;9888;48.606;9.630;2023-02-23T07:03:15;31.20;;;14.40;;
19495;SDS011;9888;48.606;9.630;2023-02-23T07:05:43;27.30;;;14.60;;
19495;SDS011;9888;48.606;9.630;2023-02-23T07:08:10;26.80;;;15.50;;
19495;SDS011;9888;48.606;9.630;2023-02-23T07:10:37;26.60;;;14.70;;
19495;SDS011;9888;48.606;9.630;2023-02-23T07:13:04;25.60;;;14.00;;
19495;SDS011;9888;48.606;9.630;2023-02-23T07:15:37;26.97;;;13.90;;
19495;SDS011;9888;48.606;9.630;2023-02-23T07:18:05;29.60;;;14.27;;
19495;SDS011;9888;48.606;9.630;2023-02-23T07:20:33;25.37;;;14.30;;
19495;SDS011;9888;48.606;9.630;2023-02-23T07:23:00;28.43;;;15.10;;
19495;SDS011;9888;48.606;9.630;2023-02-23T07:25:27;24.73;;;13.83;;
19495;SDS011;9888;48.606;9.630;2023-02-23T07:27:55;28.90;;;15.77;;
19495;SDS011;9888;48.606;9.630;2023-02-23T07:30:23;29.13;;;14.37;;
19495;SDS011;9888;48.606;9.630;2023-02-23T07:32:51;27.00;;;15.00;;
19495;SDS011;9888;48.606;9.630;2023-02-23T07:35:19;25.73;;;14.20;;
19495;SDS011;9888;48.606;9.630;2023-02-23T07:37:45;27.30;;;14.00;;
19495;SDS011;9888;48.606;9.630;2023-02-23T07:40:13;28.27;;;14.50;;
19495;SDS011;9888;48.606;9.630;2023-02-23T07:42:40;29.00;;;14.00;;
19495;SDS011;9888;48.606;9.630;2023-02-23T07:45:09;26.80;;;15.20;;
19495;SDS011;9888;48.606;9.630;2023-02-23T07:47:36;30.23;;;15.33;;
19495;SDS011;9888;48.606;9.630;2023-02-23T07:50:04;25.23;;;14.17;;
19495;SDS011;9888;48.606;9.630;2023-02-23T07:52:38;25.63;;;14.43;;
19495;SDS011;9888;48.606;9.630;2023-02-23T07:55:06;32.60;;;18.17;;
19495;SDS011;9888;48.606;9.630;2023-02-23T07:57:34;28.10;;;14.93;;
19495;SDS011;9888;48.606;9.630;2023-02-23T08:00:01;29.47;;;14.37;;
19495;SDS011;9888;48.606;9.630;2023-02-23T08:02:28;28.40;;;14.47;;
19495;SDS011;9888;48.606;9.630;2023-02-23T08:04:57;28.60;;;15.23;;
19495;SDS011;9888;48.606;9.630;2023-02-23T08:07:24;28.30;;;15.97;;
19495;SDS011;9888;48.606;9.630;2023-02-23T08:09:51;31.57;;;16.77;;
19495;SDS011;9888;48.606;9.630;2023-02-23T08:12:18;30.50;;;17.00;;
19495;SDS011;9888;48.606;9.630;2023-02-23T08:14:46;35.17;;;16.93;;
19495;SDS011;9888;48.606;9.630;2023-02-23T08:17:13;30.43;;;16.90;;
19495;SDS011;9888;48.606;9.630;2023-02-23T08:19:40;31.20;;;16.30;;
19495;SDS011;9888;48.606;9.630;2023-02-23T08:22:07;33.67;;;16.13;;
19495;SDS011;9888;48.606;9.630;2023-02-23T08:24:34;30.30;;;16.60;;
19495;SDS011;9888;48.606;9.630;2023-02-23T08:27:01;29.00;;;17.63;;
19495;SDS011;9888;48.606;9.630;2023-02-23T08:29:29;28.27;;;16.63;;
19495;SDS011;9888;48.606;9.630;2023-02-23T08:31:56;29.47;;;15.97;;
19495;SDS011;9888;48.606;9.630;2023-02-23T08:34:23;31.00;;;15.10;;
19495;SDS011;9888;48.606;9.630;2023-02-23T08:36:50;25.30;;;14.00;;
19495;SDS011;9888;48.606;9.630;2023-02-23T08:39:18;20.57;;;12.90;;
19495;SDS011;9888;48.606;9.630;2023-02-23T08:41:45;24.13;;;13.47;;
19495;SDS011;9888;48.606;9.630;2023-02-23T08:44:12;25.27;;;12.73;;
19495;SDS011;9888;48.606;9.630;2023-02-23T08:46:39;23.00;;;12.10;;
19495;SDS011;9888;48.606;9.630;2023-02-23T08:49:06;20.50;;;10.77;;
19495;SDS011;9888;48.606;9.630;2023-02-23T08:51:36;14.00;;;6.70;;
19495;SDS011;9888;48.606;9.630;2023-02-23T08:54:03;15.60;;;7.30;;
19495;SDS011;9888;48.606;9.630;2023-02-23T08:56:37;11.90;;;6.03;;
19495;SDS011;9888;48.606;9.630;2023-02-23T08:59:04;14.37;;;5.47;;
19495;SDS011;9888;48.606;9.630;2023-02-23T09:01:31;10.70;;;4.67;;
19495;SDS011;9888;48.606;9.630;2023-02-23T09:03:58;11.57;;;5.60;;
19495;SDS011;9888;48.606;9.630;2023-02-23T09:06:26;13.30;;;5.53;;
19495;SDS011;9888;48.606;9.630;2023-02-23T09:08:54;11.87;;;5.50;;
19495;SDS011;9888;48.606;9.630;2023-02-23T09:11:21;11.67;;;4.70;;
19495;SDS011;9888;48.606;9.630;2023-02-23T09:13:49;12.20;;;4.90;;
19495;SDS011;9888;48.606;9.630;2023-02-23T09:16:17;10.97;;;5.10;;
19495;SDS011;9888;48.606;9.630;2023-02-23T09:18:44;12.47;;;5.13;;
19495;SDS011;9888;48.606;9.630;2023-02-23T09:21:15;11.17;;;4.40;;
19495;SDS011;9888;48.606;9.630;2023-02-23T09:23:46;12.43;;;4.70;;
19495;SDS011;9888;48.606;9.630;2023-02-23T09:26:16;10.63;;;4.60;;
19495;SDS011;9888;48.606;9.630;2023-02-23T09:28:46;10.60;;;4.40;;
19495;SDS011;9888;48.606;9.630;2023-02-23T09:31:14;10.53;;;4.97;;
19495;SDS011;9888;48.606;9.630;2023-02-23T09:33:44;10.70;;;4.57;;
19495;SDS011;9888;48.606;9.630;2023-02-23T09:36:12;11.20;;;4.60;;
19495;SDS011;9888;48.606;9.630;2023-02-23T09:38:45;12.13;;;3.60;;
19495;SDS011;9888;48.606;9.630;2023-02-23T09:41:57;11.10;;;4.20;;
19495;SDS011;9888;48.606;9.630;2023-02-23T09:47:25;11.47;;;3.83;;
19495;SDS011;9888;48.606;9.630;2023-02-23T09:50:01;10.20;;;4.17;;
19495;SDS011;9888;48.606;9.630;2023-02-23T09:52:39;12.43;;;4.03;;
19495;SDS011;9888;48.606;9.630;2023-02-23T09:55:11;10.43;;;4.40;;
19495;SDS011;9888;48.606;9.630;2023-02-23T09:57:40;10.60;;;3.97;;
19495;SDS011;9888;48.606;9.630;2023-02-23T10:00:15;8.23;;;3.67;;
19495;SDS011;9888;48.606;9.630;2023-02-23T10:03:20;12.17;;;3.90;;
19495;SDS011;9888;48.606;9.630;2023-02-23T10:06:08;8.93;;;3.00;;
19495;SDS011;9888;48.606;9.630;2023-02-23T10:08:43;9.53;;;2.83;;
19495;SDS011;9888;48.606;9.630;2023-02-23T10:16:26;9.00;;;3.47;;
19495;SDS011;9888;48.606;9.630;2023-02-23T10:21:55;10.80;;;3.17;;
19495;SDS011;9888;48.606;9.630;2023-02-23T10:27:23;9.50;;;3.33;;
19495;SDS011;9888;48.606;9.630;2023-02-23T10:29:56;10.77;;;2.90;;
19495;SDS011;9888;48.606;9.630;2023-02-23T10:35:20;16.50;;;3.70;;
19495;SDS011;9888;48.606;9.630;2023-02-23T10:37:47;11.37;;;3.40;;
19495;SDS011;9888;48.606;9.630;2023-02-23T10:40:26;9.43;;;3.10;;
19495;SDS011;9888;48.606;9.630;2023-02-23T10:43:08;9.50;;;3.53;;
19495;SDS011;9888;48.606;9.630;2023-02-23T10:45:47;10.70;;;3.60;;
19495;SDS011;9888;48.606;9.630;2023-02-23T10:51:39;9.73;;;3.33;;
19495;SDS011;9888;48.606;9.630;2023-02-23T10:57:20;8.97;;;2.60;;
19495;SDS011;9888;48.606;9.630;2023-02-23T11:00:00;11.07;;;2.67;;
19495;SDS011;9888;48.606;9.630;2023-02-23T11:02:52;6.93;;;2.30;;
19495;SDS011;9888;48.606;9.630;2023-02-23T11:05:30;7.50;;;2.70;;
19495;SDS011;9888;48.606;9.630;2023-02-23T11:10:56;9.40;;;2.73;;
19495;SDS011;9888;48.606;9.630;2023-02-23T11:13:33;12.83;;;3.60;;
19495;SDS011;9888;48.606;9.630;2023-02-23T11:18:34;11.87;;;3.77;;
19495;SDS011;9888;48.606;9.630;2023-02-23T11:21:03;9.93;;;3.53;;
19495;SDS011;9888;48.606;9.630;2023-02-23T11:23:39;11.70;;;4.33;;
19495;SDS011;9888;48.606;9.630;2023-02-23T11:26:20;10.30;;;3.70;;
19495;SDS011;9888;48.606;9.630;2023-02-23T11:28:54;10.70;;;3.70;;
19495;SDS011;9888;48.606;9.630;2023-02-23T11:31:31;11.23;;;4.67;;
19495;SDS011;9888;48.606;9.630;2023-02-23T11:34:04;13.27;;;4.30;;
19495;SDS011;9888;48.606;9.630;2023-02-23T11:36:36;14.80;;;5.07;;
19495;SDS011;9888;48.606;9.630;2023-02-23T11:39:04;14.20;;;4.83;;
19495;SDS011;9888;48.606;9.630;2023-02-23T11:41:42;18.33;;;6.50;;
19495;SDS011;9888;48.606;9.630;2023-02-23T11:44:19;14.27;;;7.00;;
19495;SDS011;9888;48.606;9.630;2023-02-23T11:46:48;12.67;;;6.20;;
19495;SDS011;9888;48.606;9.630;2023-02-23T11:49:19;12.57;;;6.23;;
19495;SDS011;9888;48.606;9.630;2023-02-23T11:55:18;11.13;;;5.33;;
19495;SDS011;9888;48.606;9.630;2023-02-23T11:57:46;12.43;;;5.70;;
19495;SDS011;9888;48.606;9.630;2023-02-23T12:00:26;11.83;;;5.70;;
19495;SDS011;9888;48.606;9.630;2023-02-23T12:02:56;15.83;;;5.70;;
19495;SDS011;9888;48.606;9.630;2023-02-23T12:05:27;12.27;;;5.30;;
19495;SDS011;9888;48.606;9.630;2023-02-23T12:10:53;12.90;;;6.00;;
19495;SDS011;9888;48.606;9.630;2023-02-23T12:16:04;18.30;;;6.20;;
19495;SDS011;9888;48.606;9.630;2023-02-23T12:18:58;13.13;;;4.77;;
19495;SDS011;9888;48.606;9.630;2023-02-23T12:21:42;14.10;;;5.63;;
19495;SDS011;9888;48.606;9.630;2023-02-23T12:27:26;12.33;;;4.90;;
19495;SDS011;9888;48.606;9.630;2023-02-23T12:30:11;15.87;;;6.13;;
19495;SDS011;9888;48.606;9.630;2023-02-23T12:32:55;15.60;;;5.17;;
19495;SDS011;9888;48.606;9.630;2023-02-23T12:35:44;11.60;;;4.43;;
19495;SDS011;9888;48.606;9.630;2023-02-23T12:52:57;10.50;;;4.30;;
19495;SDS011;9888;48.606;9.630;2023-02-23T13:01:05;14.40;;;5.00;;
19495;SDS011;9888;48.606;9.630;2023-02-23T13:03:50;12.80;;;5.80;;
19495;SDS011;9888;48.606;9.630;2023-02-23T13:06:48;13.00;;;5.60;;
19495;SDS011;9888;48.606;9.630;2023-02-23T13:12:48;14.33;;;6.70;;
19495;SDS011;9888;48.606;9.630;2023-02-23T13:15:38;10.90;;;5.27;;
19495;SDS011;9888;48.606;9.630;2023-02-23T13:18:43;11.13;;;5.50;;
19495;SDS011;9888;48.606;9.630;2023-02-23T13:21:32;15.90;;;5.83;;
19495;SDS011;9888;48.606;9.630;2023-02-23T13:24:09;16.50;;;6.37;;
19495;SDS011;9888;48.606;9.630;2023-02-23T13:29:53;19.13;;;7.47;;
19495;SDS011;9888;48.606;9.630;2023-02-23T13:32:27;14.30;;;7.17;;
19495;SDS011;9888;48.606;9.630;2023-02-23T13:34:57;13.93;;;6.47;;
19495;SDS011;9888;48.606;9.630;2023-02-23T13:51:11;11.10;;;5.70;;
19495;SDS011;9888;48.606;9.630;2023-02-23T13:53:46;11.80;;;6.20;;
19495;SDS011;9888;48.606;9.630;2023-02-23T13:56:29;12.57;;;5.23;;
19495;SDS011;9888;48.606;9.630;2023-02-23T13:59:01;13.13;;;6.10;;
19495;SDS011;9888;48.606;9.630;2023-02-23T14:01:51;16.77;;;5.37;;
19495;SDS011;9888;48.606;9.630;2023-02-23T14:04:23;15.67;;;6.00;;
19495;SDS011;9888;48.606;9.630;2023-02-23T14:07:20;15.27;;;6.13;;
19495;SDS011;9888;48.606;9.630;2023-02-23T14:10:07;15.40;;;6.13;;
19495;SDS011;9888;48.606;9.630;2023-02-23T14:16:11;11.17;;;5.20;;
19495;SDS011;9888;48.606;9.630;2023-02-23T14:21:43;10.67;;;5.13;;
19495;SDS011;9888;48.606;9.630;2023-02-23T14:24:18;13.13;;;4.73;;
19495;SDS011;9888;48.606;9.630;2023-02-23T14:27:04;10.57;;;5.30;;
19495;SDS011;9888;48.606;9.630;2023-02-23T14:32:38;12.10;;;5.00;;
19495;SDS011;9888;48.606;9.630;2023-02-23T14:35:34;10.60;;;5.37;;
19495;SDS011;9888;48.606;9.630;2023-02-23T14:38:00;12.47;;;5.53;;
19495;SDS011;9888;48.606;9.630;2023-02-23T14:40:41;11.33;;;5.77;;
19495;SDS011;9888;48.606;9.630;2023-02-23T14:43:53;13.10;;;5.80;;
19495;SDS011;9888;48.606;9.630;2023-02-23T14:46:02;11.83;;;5.77;;
19495;SDS011;9888;48.606;9.630;2023-02-23T14:48:33;13.80;;;4.80;;
19495;SDS011;9888;48.606;9.630;2023-02-23T14:53:47;11.13;;;4.80;;
19495;SDS011;9888;48.606;9.630;2023-02-23T14:56:19;11.90;;;4.87;;
19495;SDS011;9888;48.606;9.630;2023-02-23T14:58:51;13.63;;;5.00;;
19495;SDS011;9888;48.606;9.630;2023-02-23T15:01:35;11.10;;;4.53;;
19495;SDS011;9888;48.606;9.630;2023-02-23T15:04:06;13.73;;;4.97;;
19495;SDS011;9888;48.606;9.630;2023-02-23T15:06:38;10.93;;;4.10;;
19495;SDS011;9888;48.606;9.630;2023-02-23T15:09:06;8.53;;;3.40;;
19495;SDS011;9888;48.606;9.630;2023-02-23T15:11:40;9.90;;;3.40;;
19495;SDS011;9888;48.606;9.630;2023-02-23T15:14:11;17.20;;;4.10;;
19495;SDS011;9888;48.606;9.630;2023-02-23T15:16:41;10.57;;;3.13;;
19495;SDS011;9888;48.606;9.630;2023-02-23T15:19:11;17.33;;;3.97;;
19495;SDS011;9888;48.606;9.630;2023-02-23T15:21:51;11.27;;;3.37;;
19495;SDS011;9888;48.606;9.630;2023-02-23T15:24:27;11.83;;;3.77;;
19495;SDS011;9888;48.606;9.630;2023-02-23T15:27:19;9.63;;;3.67;;
19495;SDS011;9888;48.606;9.630;2023-02-23T15:29:53;9.83;;;3.43;;
19495;SDS011;9888;48.606;9.630;2023-02-23T15:32:23;10.83;;;3.97;;
19495;SDS011;9888;48.606;9.630;2023-02-23T15:34:51;10.17;;;3.67;;
19495;SDS011;9888;48.606;9.630;2023-02-23T15:37:35;11.37;;;3.53;;
19495;SDS011;9888;48.606;9.630;2023-02-23T15:40:30;14.23;;;3.70;;
19495;SDS011;9888;48.606;9.630;2023-02-23T15:43:10;13.60;;;4.03;;
19495;SDS011;9888;48.606;9.630;2023-02-23T15:46:02;10.63;;;3.50;;
19495;SDS011;9888;48.606;9.630;2023-02-23T15:48:48;10.63;;;4.10;;
19495;SDS011;9888;48.606;9.630;2023-02-23T15:54:21;20.00;;;11.97;;
19495;SDS011;9888;48.606;9.630;2023-02-23T15:57:06;14.20;;;5.60;;
19495;SDS011;9888;48.606;9.630;2023-02-23T15:59:52;11.17;;;4.10;;
19495;SDS011;9888;48.606;9.630;2023-02-23T16:02:24;9.27;;;3.93;;
19495;SDS011;9888;48.606;9.630;2023-02-23T16:04:54;13.90;;;4.33;;
19495;SDS011;9888;48.606;9.630;2023-02-23T16:07:23;12.00;;;4.63;;
19495;SDS011;9888;48.606;9.630;2023-02-23T16:09:52;13.27;;;5.27;;
19495;SDS011;9888;48.606;9.630;2023-02-23T16:12:27;13.47;;;4.67;;
19495;SDS011;9888;48.606;9.630;2023-02-23T16:14:58;11.20;;;5.03;;
19495;SDS011;9888;48.606;9.630;2023-02-23T16:17:45;11.90;;;4.27;;
19495;SDS011;9888;48.606;9.630;2023-02-23T16:20:19;13.17;;;5.17;;
19495;SDS011;9888;48.606;9.630;2023-02-23T16:23:30;12.73;;;5.13;;
19495;SDS011;9888;48.606;9.630;2023-02-23T16:28:51;11.23;;;5.17;;
19495;SDS011;9888;48.606;9.630;2023-02-23T16:31:43;10.30;;;4.60;;
19495;SDS011;9888;48.606;9.630;2023-02-23T16:34:19;12.00;;;5.17;;
19495;SDS011;9888;48.606;9.630;2023-02-23T16:36:53;9.77;;;4.07;;
19495;SDS011;9888;48.606;9.630;2023-02-23T16:39:21;9.50;;;3.80;;
19495;SDS011;9888;48.606;9.630;2023-02-23T16:41:50;13.83;;;3.83;;
19495;SDS011;9888;48.606;9.630;2023-02-23T16:44:18;9.97;;;4.20;;
19495;SDS011;9888;48.606;9.630;2023-02-23T16:49:28;10.30;;;4.07;;
19495;SDS011;9888;48.606;9.630;2023-02-23T16:51:56;13.03;;;4.50;;
19495;SDS011;9888;48.606;9.630;2023-02-23T16:54:23;14.30;;;4.90;;
19495;SDS011;9888;48.606;9.630;2023-02-23T16:56:50;14.10;;;3.90;;
19495;SDS011;9888;48.606;9.630;2023-02-23T16:59:20;14.90;;;3.83;;
19495;SDS011;9888;48.606;9.630;2023-02-23T17:01:48;12.97;;;4.23;;
19495;SDS011;9888;48.606;9.630;2023-02-23T17:04:16;13.10;;;4.97;;
19495;SDS011;9888;48.606;9.630;2023-02-23T17:06:43;11.97;;;4.23;;
19495;SDS011;9888;48.606;9.630;2023-02-23T17:09:12;17.37;;;5.80;;
19495;SDS011;9888;48.606;9.630;2023-02-23T17:11:40;15.33;;;5.23;;
19495;SDS011;9888;48.606;9.630;2023-02-23T17:14:19;13.60;;;5.40;;
19495;SDS011;9888;48.606;9.630;2023-02-23T17:16:52;11.53;;;4.73;;
19495;SDS011;9888;48.606;9.630;2023-02-23T17:19:20;11.43;;;4.80;;
19495;SDS011;9888;48.606;9.630;2023-02-23T17:21:48;12.70;;;5.43;;
19495;SDS011;9888;48.606;9.630;2023-02-23T17:24:15;14.63;;;4.67;;
19495;SDS011;9888;48.606;9.630;2023-02-23T17:26:43;13.00;;;5.10;;
19495;SDS011;9888;48.606;9.630;2023-02-23T17:29:10;12.80;;;4.90;;
19495;SDS011;9888;48.606;9.630;2023-02-23T17:31:37;11.77;;;4.97;;
19495;SDS011;9888;48.606;9.630;2023-02-23T17:34:04;10.23;;;4.37;;
19495;SDS011;9888;48.606;9.630;2023-02-23T17:36:32;12.03;;;5.10;;
19495;SDS011;9888;48.606;9.630;2023-02-23T17:39:00;16.10;;;4.80;;
19495;SDS011;9888;48.606;9.630;2023-02-23T17:41:26;13.63;;;5.50;;
19495;SDS011;9888;48.606;9.630;2023-02-23T17:43:54;9.30;;;3.80;;
19495;SDS011;9888;48.606;9.630;2023-02-23T17:46:21;12.23;;;4.70;;
19495;SDS011;9888;48.606;9.630;2023-02-23T17:48:48;12.17;;;5.20;;
19495;SDS011;9888;48.606;9.630;2023-02-23T17:51:15;13.70;;;5.37;;
19495;SDS011;9888;48.606;9.630;2023-02-23T17:53:43;11.87;;;4.90;;